createdAt,value
2018-02-24T00:00:29.090Z,101187.70
2018-02-24T00:01:31.572Z,101181.23
2018-02-24T00:02:34.040Z,101187.70
2018-02-24T00:03:36.516Z,101189.23
2018-02-24T00:04:39.013Z,101189.08
2018-02-24T00:05:41.479Z,101188.92
2018-02-24T00:06:43.964Z,101188.20
2018-02-24T00:07:46.436Z,101196.61
2018-02-24T00:08:48.899Z,101197.17
2018-02-24T00:09:51.386Z,101193.77
2018-02-24T00:10:54.157Z,101195.14
2018-02-24T00:11:56.634Z,101192.13
2018-02-24T00:12:59.183Z,101199.97
2018-02-24T00:14:01.647Z,101201.09
2018-02-24T00:15:04.151Z,101200.84
2018-02-24T00:16:06.616Z,101203.34
2018-02-24T00:17:09.102Z,101199.93
2018-02-24T00:18:11.571Z,101202.42
2018-02-24T00:19:14.051Z,101202.17
2018-02-24T00:20:16.512Z,101196.83
2018-02-24T00:21:18.999Z,101201.26
2018-02-24T00:22:21.482Z,101193.14
2018-02-24T00:23:23.966Z,101202.50
2018-02-24T00:24:26.431Z,101194.00
2018-02-24T00:25:28.929Z,101196.66
2018-02-24T00:26:31.395Z,101199.70
2018-02-24T00:27:33.866Z,101189.17
2018-02-24T00:28:36.337Z,101192.79
2018-02-24T00:29:38.800Z,101191.16
2018-02-24T00:30:41.267Z,101197.12
2018-02-24T00:31:43.746Z,101193.55
2018-02-24T00:32:46.222Z,101195.20
2018-02-24T00:33:48.699Z,101194.55
2018-02-24T00:34:51.174Z,101195.52
2018-02-24T00:35:53.638Z,101195.66
2018-02-24T00:36:56.104Z,101197.19
2018-02-24T00:37:58.613Z,101199.13
2018-02-24T00:39:01.126Z,101195.72
2018-02-24T00:40:03.595Z,101205.48
2018-02-24T00:41:06.058Z,101203.30
2018-02-24T00:42:08.539Z,101206.76
2018-02-24T00:43:11.007Z,101207.73
2018-02-24T00:44:13.500Z,101204.31
2018-02-24T00:45:15.978Z,101204.88
2018-02-24T00:46:18.466Z,101201.88
2018-02-24T00:47:20.945Z,101204.62
2018-02-24T00:48:23.424Z,101197.62
2018-02-24T00:49:25.906Z,101203.67
2018-02-24T00:50:28.375Z,101201.64
2018-02-24T00:51:30.856Z,101204.66
2018-02-24T00:52:33.348Z,101197.39
2018-02-24T00:53:35.816Z,101203.03
2018-02-24T00:54:38.315Z,101203.19
2018-02-24T00:55:40.814Z,101202.38
2018-02-24T00:56:43.282Z,101205.12
2018-02-24T00:57:45.766Z,101205.83
2018-02-24T00:58:48.239Z,101199.27
2018-02-24T00:59:50.703Z,101203.54
2018-02-24T01:00:53.167Z,101200.54
2018-02-24T01:01:55.631Z,101203.44
2018-02-24T01:02:58.105Z,101204.81
2018-02-24T01:04:00.589Z,101204.15
2018-02-24T01:05:03.085Z,101205.52
2018-02-24T01:06:05.561Z,101204.70
2018-02-24T01:07:08.042Z,101200.33
2018-02-24T01:08:10.522Z,101199.11
2018-02-24T01:09:13.004Z,101205.72
2018-02-24T01:10:15.469Z,101210.15
2018-02-24T01:11:17.949Z,101208.48
2018-02-24T01:12:20.434Z,101213.58
2018-02-24T01:13:22.918Z,101202.84
2018-02-24T01:14:25.402Z,101201.47
2018-02-24T01:15:27.871Z,101198.88
2018-02-24T01:16:30.349Z,101193.94
2018-02-24T01:17:32.835Z,101194.34
2018-02-24T01:18:35.298Z,101197.91
2018-02-24T01:19:37.781Z,101196.53
2018-02-24T01:20:40.265Z,101192.41
2018-02-24T01:21:42.748Z,101191.20
2018-02-24T01:22:45.221Z,101196.28
2018-02-24T01:23:47.688Z,101195.31
2018-02-24T01:24:50.177Z,101194.66
2018-02-24T01:25:52.652Z,101196.99
2018-02-24T01:26:55.134Z,101199.89
2018-02-24T01:27:57.609Z,101198.92
2018-02-24T01:29:00.072Z,101198.27
2018-02-24T01:30:02.537Z,101207.88
2018-02-24T01:31:05.007Z,101208.84
2018-02-24T01:32:07.477Z,101205.84
2018-02-24T01:33:10.003Z,101205.99
2018-02-24T01:34:12.462Z,101200.65
2018-02-24T01:35:14.953Z,101205.73
2018-02-24T01:36:17.445Z,101207.41
2018-02-24T01:37:19.921Z,101205.63
2018-02-24T01:38:22.387Z,101206.04
2018-02-24T01:39:24.846Z,101204.00
2018-02-24T01:40:27.354Z,101209.09
2018-02-24T01:41:29.849Z,101211.02
2018-02-24T01:42:32.341Z,101206.49
2018-02-24T01:43:34.825Z,101208.17
2018-02-24T01:44:37.295Z,101207.77
2018-02-24T01:45:39.770Z,101211.48
2018-02-24T01:46:42.231Z,101213.81
2018-02-24T01:47:44.723Z,101213.13
2018-02-24T01:48:47.207Z,101213.67
2018-02-24T01:49:49.689Z,101211.64
2018-02-24T01:50:52.169Z,101217.55
2018-02-24T01:51:54.632Z,101223.19
2018-02-24T01:52:57.118Z,101216.73
2018-02-24T01:53:59.618Z,101230.05
2018-02-24T01:55:02.093Z,101226.08
2018-02-24T01:56:04.561Z,101223.48
2018-02-24T01:57:07.041Z,101230.91
2018-02-24T01:58:09.879Z,101230.91
2018-02-24T01:59:12.357Z,101221.45
2018-02-24T02:00:14.837Z,101225.72
2018-02-24T02:01:17.321Z,101220.94
2018-02-24T02:02:19.809Z,101222.61
2018-02-24T02:03:22.289Z,101223.33
2018-02-24T02:04:24.767Z,101214.83
2018-02-24T02:05:27.252Z,101210.45
2018-02-24T02:06:29.728Z,101213.76
2018-02-24T02:07:32.214Z,101215.84
2018-02-24T02:08:34.674Z,101218.18
2018-02-24T02:09:37.136Z,101218.05
2018-02-24T02:10:39.623Z,101213.67
2018-02-24T02:11:42.101Z,101213.97
2018-02-24T02:12:44.606Z,101215.09
2018-02-24T02:13:47.093Z,101209.08
2018-02-24T02:14:49.568Z,101215.13
2018-02-24T02:15:52.045Z,101213.91
2018-02-24T02:16:54.525Z,101211.72
2018-02-24T02:17:56.995Z,101215.02
2018-02-24T02:18:59.485Z,101209.02
2018-02-24T02:20:01.969Z,101211.91
2018-02-24T02:21:04.448Z,101213.44
2018-02-24T02:22:06.932Z,101213.59
2018-02-24T02:23:09.399Z,101218.11
2018-02-24T02:24:12.010Z,101212.48
2018-02-24T02:25:14.480Z,101217.16
2018-02-24T02:26:16.947Z,101214.97
2018-02-24T02:27:19.423Z,101218.28
2018-02-24T02:28:21.888Z,101211.56
2018-02-24T02:29:24.379Z,101210.75
2018-02-24T02:30:26.866Z,101217.61
2018-02-24T02:31:29.335Z,101214.61
2018-02-24T02:32:31.815Z,101216.55
2018-02-24T02:33:34.284Z,101214.50
2018-02-24T02:34:36.765Z,101219.59
2018-02-24T02:35:39.266Z,101216.98
2018-02-24T02:36:41.753Z,101209.31
2018-02-24T02:37:44.263Z,101219.33
2018-02-24T02:38:46.740Z,101218.66
2018-02-24T02:39:49.255Z,101221.81
2018-02-24T02:40:51.747Z,101223.19
2018-02-24T02:41:54.227Z,101218.26
2018-02-24T02:42:56.699Z,101224.30
2018-02-24T02:43:59.230Z,101228.02
2018-02-24T02:45:01.701Z,101221.16
2018-02-24T02:46:04.188Z,101219.93
2018-02-24T02:47:06.665Z,101221.30
2018-02-24T02:48:09.164Z,101223.64
2018-02-24T02:49:11.647Z,101221.30
2018-02-24T02:50:14.125Z,101219.11
2018-02-24T02:51:16.610Z,101215.55
2018-02-24T02:52:19.085Z,101219.82
2018-02-24T02:53:21.551Z,101217.64
2018-02-24T02:54:24.034Z,101222.16
2018-02-24T02:55:26.514Z,101226.27
2018-02-24T02:56:28.983Z,101227.39
2018-02-24T02:57:31.452Z,101226.02
2018-02-24T02:58:33.960Z,101225.20
2018-02-24T02:59:36.441Z,101227.69
2018-02-24T03:00:38.908Z,101223.17
2018-02-24T03:01:41.390Z,101227.81
2018-02-24T03:02:43.874Z,101224.80
2018-02-24T03:03:46.348Z,101223.73
2018-02-24T03:04:48.874Z,101225.66
2018-02-24T03:05:51.352Z,101226.22
2018-02-24T03:06:53.834Z,101226.63
2018-02-24T03:07:56.317Z,101219.52
2018-02-24T03:08:58.811Z,101226.52
2018-02-24T03:10:01.297Z,101227.08
2018-02-24T03:11:03.766Z,101221.89
2018-02-24T03:12:06.262Z,101224.78
2018-02-24T03:13:08.741Z,101221.78
2018-02-24T03:14:11.253Z,101223.86
2018-02-24T03:15:13.727Z,101221.11
2018-02-24T03:16:16.205Z,101224.41
2018-02-24T03:17:18.681Z,101228.67
2018-02-24T03:18:21.161Z,101221.56
2018-02-24T03:19:23.652Z,101228.57
2018-02-24T03:20:26.126Z,101226.38
2018-02-24T03:21:28.602Z,101221.86
2018-02-24T03:22:31.083Z,101217.34
2018-02-24T03:23:33.566Z,101221.98
2018-02-24T03:24:36.035Z,101219.94
2018-02-24T03:25:38.625Z,101223.77
2018-02-24T03:26:41.107Z,101224.33
2018-02-24T03:27:43.593Z,101225.44
2018-02-24T03:28:46.081Z,101223.25
2018-02-24T03:29:48.559Z,101228.22
2018-02-24T03:30:51.028Z,101226.03
2018-02-24T03:31:53.522Z,101226.73
2018-02-24T03:32:55.999Z,101222.36
2018-02-24T03:33:58.484Z,101228.41
2018-02-24T03:35:00.974Z,101225.41
2018-02-24T03:36:03.447Z,101230.63
2018-02-24T03:37:05.930Z,101220.22
2018-02-24T03:38:08.406Z,101225.45
2018-02-24T03:39:10.897Z,101231.08
2018-02-24T03:40:13.393Z,101233.53
2018-02-24T03:41:15.877Z,101229.56
2018-02-24T03:42:18.353Z,101228.75
2018-02-24T03:43:20.844Z,101235.34
2018-02-24T03:44:23.315Z,101241.39
2018-02-24T03:45:25.801Z,101241.54
2018-02-24T03:46:29.258Z,101248.95
2018-02-24T03:47:31.745Z,101247.73
2018-02-24T03:48:34.225Z,101251.98
2018-02-24T03:49:36.699Z,101248.84
2018-02-24T03:50:39.190Z,101257.47
2018-02-24T03:51:41.690Z,101259.95
2018-02-24T03:52:44.181Z,101253.80
2018-02-24T03:53:46.659Z,101255.99
2018-02-24T03:54:49.143Z,101257.52
2018-02-24T03:55:51.627Z,101255.33
2018-02-24T03:56:54.131Z,101248.62
2018-02-24T03:57:56.625Z,101248.62
2018-02-24T03:58:59.103Z,101252.88
2018-02-24T04:00:01.586Z,101249.73
2018-02-24T04:01:04.069Z,101244.24
2018-02-24T04:02:06.597Z,101246.98
2018-02-24T04:03:09.089Z,101252.33
2018-02-24T04:04:11.561Z,101250.14
2018-02-24T04:05:14.058Z,101249.17
2018-02-24T04:06:16.535Z,101242.88
2018-02-24T04:07:19.035Z,101245.20
2018-02-24T04:08:21.516Z,101242.47
2018-02-24T04:09:24.009Z,101252.62
2018-02-24T04:10:26.483Z,101249.06
2018-02-24T04:11:28.973Z,101250.28
2018-02-24T04:12:31.463Z,101248.66
2018-02-24T04:13:33.953Z,101251.14
2018-02-24T04:14:36.422Z,101247.84
2018-02-24T04:15:38.913Z,101254.44
2018-02-24T04:16:41.401Z,101258.14
2018-02-24T04:17:43.899Z,101254.99
2018-02-24T04:18:46.380Z,101255.80
2018-02-24T04:19:48.871Z,101253.73
2018-02-24T04:20:51.357Z,101259.22
2018-02-24T04:21:53.838Z,101258.26
2018-02-24T04:22:56.320Z,101261.96
2018-02-24T04:23:58.809Z,101261.55
2018-02-24T04:25:01.288Z,101263.07
2018-02-24T04:26:03.781Z,101257.33
2018-02-24T04:27:06.251Z,101263.22
2018-02-24T04:28:08.751Z,101259.66
2018-02-24T04:29:11.241Z,101260.22
2018-02-24T04:30:13.733Z,101258.84
2018-02-24T04:31:16.225Z,101261.18
2018-02-24T04:32:18.705Z,101261.73
2018-02-24T04:33:21.204Z,101259.81
2018-02-24T04:34:23.692Z,101262.96
2018-02-24T04:35:26.163Z,101261.73
2018-02-24T04:36:28.662Z,101269.41
2018-02-24T04:37:31.139Z,101263.52
2018-02-24T04:38:33.632Z,101263.22
2018-02-24T04:39:36.111Z,101265.25
2018-02-24T04:40:38.604Z,101264.92
2018-02-24T04:41:41.102Z,101264.03
2018-02-24T04:42:43.596Z,101265.22
2018-02-24T04:43:46.098Z,101264.17
2018-02-24T04:44:48.622Z,101260.13
2018-02-24T04:45:51.112Z,101260.78
2018-02-24T04:46:53.596Z,101270.57
2018-02-24T04:47:56.071Z,101270.94
2018-02-24T04:48:58.563Z,101265.55
2018-02-24T04:50:01.043Z,101270.33
2018-02-24T04:51:03.535Z,101267.55
2018-02-24T04:52:06.034Z,101269.99
2018-02-24T04:53:08.507Z,101272.33
2018-02-24T04:54:10.994Z,101274.77
2018-02-24T04:55:13.485Z,101268.58
2018-02-24T04:56:15.975Z,101264.46
2018-02-24T04:57:18.466Z,101268.98
2018-02-24T04:58:20.958Z,101269.80
2018-02-24T04:59:23.451Z,101270.10
2018-02-24T05:00:25.915Z,101271.47
2018-02-24T05:01:28.379Z,101267.91
2018-02-24T05:02:30.873Z,101275.33
2018-02-24T05:03:33.347Z,101269.17
2018-02-24T05:04:35.843Z,101268.21
2018-02-24T05:05:38.326Z,101268.21
2018-02-24T05:06:40.802Z,101260.94
2018-02-24T05:07:43.271Z,101263.02
2018-02-24T05:08:45.765Z,101259.61
2018-02-24T05:09:48.262Z,101265.25
2018-02-24T05:10:50.745Z,101269.26
2018-02-24T05:11:53.234Z,101268.84
2018-02-24T05:12:55.729Z,101272.42
2018-02-24T05:13:58.217Z,101265.56
2018-02-24T05:15:00.715Z,101271.60
2018-02-24T05:16:03.193Z,101269.27
2018-02-24T05:17:05.688Z,101273.38
2018-02-24T05:18:08.164Z,101277.65
2018-02-24T05:19:10.653Z,101275.87
2018-02-24T05:20:13.156Z,101283.14
2018-02-24T05:21:15.635Z,101276.42
2018-02-24T05:22:18.111Z,101282.62
2018-02-24T05:23:20.601Z,101278.54
2018-02-24T05:24:23.081Z,101283.36
2018-02-24T05:25:25.591Z,101282.84
2018-02-24T05:26:28.085Z,101280.14
2018-02-24T05:27:30.569Z,101283.59
2018-02-24T05:28:33.051Z,101289.48
2018-02-24T05:29:35.527Z,101290.45
2018-02-24T05:30:38.019Z,101284.60
2018-02-24T05:31:40.542Z,101286.83
2018-02-24T05:32:43.011Z,101289.86
2018-02-24T05:33:45.497Z,101290.31
2018-02-24T05:34:47.979Z,101292.38
2018-02-24T05:35:50.481Z,101283.45
2018-02-24T05:36:52.948Z,101285.68
2018-02-24T05:37:55.424Z,101282.67
2018-02-24T05:38:57.909Z,101281.05
2018-02-24T05:40:00.405Z,101281.90
2018-02-24T05:41:02.914Z,101280.41
2018-02-24T05:42:05.387Z,101286.60
2018-02-24T05:43:07.859Z,101283.59
2018-02-24T05:44:10.345Z,101286.48
2018-02-24T05:45:12.835Z,101285.00
2018-02-24T05:46:15.349Z,101288.86
2018-02-24T05:47:17.820Z,101288.56
2018-02-24T05:48:20.308Z,101291.45
2018-02-24T05:49:22.808Z,101289.42
2018-02-24T05:50:25.298Z,101289.71
2018-02-24T05:51:27.820Z,101294.53
2018-02-24T05:52:30.320Z,101293.01
2018-02-24T05:53:32.817Z,101293.38
2018-02-24T05:54:35.339Z,101289.79
2018-02-24T05:55:37.814Z,101292.31
2018-02-24T05:56:40.313Z,101287.97
2018-02-24T05:57:42.798Z,101286.23
2018-02-24T05:58:45.297Z,101291.27
2018-02-24T05:59:47.783Z,101285.55
2018-02-24T06:00:50.284Z,101287.92
2018-02-24T06:01:52.793Z,101284.56
2018-02-24T06:02:55.289Z,101295.36
2018-02-24T06:03:57.777Z,101295.73
2018-02-24T06:05:00.270Z,101297.87
2018-02-24T06:06:02.759Z,101300.20
2018-02-24T06:07:05.255Z,101299.80
2018-02-24T06:08:07.764Z,101298.27
2018-02-24T06:09:10.249Z,101299.91
2018-02-24T06:10:12.761Z,101293.86
2018-02-24T06:11:15.245Z,101301.53
2018-02-24T06:12:17.764Z,101302.50
2018-02-24T06:13:20.239Z,101300.31
2018-02-24T06:14:22.711Z,101299.08
2018-02-24T06:15:25.184Z,101302.95
2018-02-24T06:16:27.673Z,101309.92
2018-02-24T06:17:30.188Z,101303.92
2018-02-24T06:18:32.668Z,101309.70
2018-02-24T06:19:35.152Z,101316.05
2018-02-24T06:20:37.623Z,101312.23
2018-02-24T06:21:40.103Z,101315.83
2018-02-24T06:22:42.613Z,101311.86
2018-02-24T06:23:45.092Z,101316.02
2018-02-24T06:24:47.587Z,101312.34
2018-02-24T06:25:50.072Z,101313.98
2018-02-24T06:26:52.550Z,101314.98
2018-02-24T06:27:55.057Z,101315.43
2018-02-24T06:28:57.541Z,101309.02
2018-02-24T06:30:00.040Z,101320.44
2018-02-24T06:31:02.537Z,101314.44
2018-02-24T06:32:05.032Z,101312.10
2018-02-24T06:33:07.535Z,101309.91
2018-02-24T06:34:10.020Z,101310.18
2018-02-24T06:35:12.539Z,101313.48
2018-02-24T06:36:15.034Z,101311.84
2018-02-24T06:37:17.533Z,101321.34
2018-02-24T06:38:20.024Z,101313.25
2018-02-24T06:39:22.503Z,101316.14
2018-02-24T06:40:25.009Z,101314.11
2018-02-24T06:41:27.497Z,101315.89
2018-02-24T06:42:29.987Z,101319.15
2018-02-24T06:43:32.482Z,101314.99
2018-02-24T06:44:34.972Z,101316.73
2018-02-24T06:45:37.442Z,101318.70
2018-02-24T06:46:39.915Z,101319.69
2018-02-24T06:47:42.402Z,101314.78
2018-02-24T06:48:44.922Z,101318.55
2018-02-24T06:49:47.438Z,101315.43
2018-02-24T06:50:49.915Z,101323.59
2018-02-24T06:51:52.405Z,101319.16
2018-02-24T06:52:54.869Z,101320.38
2018-02-24T06:53:57.360Z,101320.64
2018-02-24T06:54:59.853Z,101321.30
2018-02-24T06:56:02.333Z,101324.31
2018-02-24T06:57:04.824Z,101318.97
2018-02-24T06:58:07.321Z,101317.89
2018-02-24T06:59:09.840Z,101323.94
2018-02-24T07:00:12.320Z,101326.84
2018-02-24T07:01:14.818Z,101326.33
2018-02-24T07:02:17.291Z,101320.44
2018-02-24T07:03:19.782Z,101333.91
2018-02-24T07:04:22.298Z,101328.86
2018-02-24T07:05:24.818Z,101330.80
2018-02-24T07:06:27.282Z,101329.86
2018-02-24T07:07:29.755Z,101332.50
2018-02-24T07:08:32.955Z,101330.76
2018-02-24T07:09:35.461Z,101324.75
2018-02-24T07:10:37.937Z,101328.87
2018-02-24T07:11:40.411Z,101331.52
2018-02-24T07:12:42.897Z,101329.22
2018-02-24T07:13:45.366Z,101334.34
2018-02-24T07:14:47.843Z,101330.11
2018-02-24T07:15:50.323Z,101330.55
2018-02-24T07:16:52.799Z,101335.67
2018-02-24T07:17:55.287Z,101338.27
2018-02-24T07:18:57.782Z,101328.16
2018-02-24T07:20:00.263Z,101339.72
2018-02-24T07:21:02.745Z,101328.37
2018-02-24T07:22:05.225Z,101335.53
2018-02-24T07:23:07.687Z,101336.38
2018-02-24T07:24:10.573Z,101339.53
2018-02-24T07:25:13.054Z,101339.28
2018-02-24T07:26:15.534Z,101344.77
2018-02-24T07:27:18.001Z,101338.61
2018-02-24T07:28:20.471Z,101348.09
2018-02-24T07:29:22.974Z,101342.09
2018-02-24T07:30:25.474Z,101345.91
2018-02-24T07:31:27.955Z,101350.14
2018-02-24T07:32:30.419Z,101352.17
2018-02-24T07:33:32.890Z,101352.36
2018-02-24T07:34:35.355Z,101344.57
2018-02-24T07:35:37.860Z,101350.50
2018-02-24T07:36:40.351Z,101345.19
2018-02-24T07:37:42.833Z,101339.77
2018-02-24T07:38:45.313Z,101343.00
2018-02-24T07:39:47.783Z,101338.98
2018-02-24T07:40:50.277Z,101341.64
2018-02-24T07:41:52.757Z,101341.79
2018-02-24T07:42:55.241Z,101356.19
2018-02-24T07:43:57.793Z,101344.91
2018-02-24T07:45:00.292Z,101349.58
2018-02-24T07:46:02.915Z,101348.31
2018-02-24T07:47:05.412Z,101346.53
2018-02-24T07:48:07.896Z,101346.80
2018-02-24T07:49:10.381Z,101352.55
2018-02-24T07:50:12.843Z,101342.82
2018-02-24T07:51:15.334Z,101353.14
2018-02-24T07:52:17.807Z,101349.73
2018-02-24T07:53:20.275Z,101355.92
2018-02-24T07:54:22.763Z,101350.06
2018-02-24T07:55:25.242Z,101349.67
2018-02-24T07:56:27.750Z,101358.65
2018-02-24T07:57:30.215Z,101356.35
2018-02-24T07:58:32.696Z,101357.77
2018-02-24T07:59:35.172Z,101356.98
2018-02-24T08:00:37.635Z,101361.55
2018-02-24T08:01:40.149Z,101352.06
2018-02-24T08:02:42.643Z,101352.06
2018-02-24T08:03:45.115Z,101361.41
2018-02-24T08:04:47.617Z,101355.36
2018-02-24T08:05:50.101Z,101365.82
2018-02-24T08:06:52.579Z,101354.06
2018-02-24T08:07:55.083Z,101369.20
2018-02-24T08:08:57.575Z,101365.27
2018-02-24T08:10:00.195Z,101356.25
2018-02-24T08:11:02.671Z,101366.56
2018-02-24T08:12:05.156Z,101363.08
2018-02-24T08:13:07.655Z,101366.27
2018-02-24T08:14:10.147Z,101363.00
2018-02-24T08:15:12.631Z,101369.30
2018-02-24T08:16:15.102Z,101379.20
2018-02-24T08:17:17.643Z,101369.30
2018-02-24T08:18:20.132Z,101365.16
2018-02-24T08:19:22.614Z,101368.97
2018-02-24T08:20:25.117Z,101368.53
2018-02-24T08:21:27.596Z,101363.19
2018-02-24T08:22:30.110Z,101368.53
2018-02-24T08:23:32.613Z,101366.78
2018-02-24T08:24:35.080Z,101365.48
2018-02-24T08:25:37.584Z,101364.67
2018-02-24T08:26:40.082Z,101370.78
2018-02-24T08:27:42.605Z,101373.30
2018-02-24T08:28:45.088Z,101373.95
2018-02-24T08:29:47.586Z,101366.57
2018-02-24T08:30:50.071Z,101372.11
2018-02-24T08:31:52.548Z,101372.87
2018-02-24T08:32:55.082Z,101373.87
2018-02-24T08:33:57.551Z,101378.65
2018-02-24T08:35:00.024Z,101379.30
2018-02-24T08:36:02.626Z,101370.28
2018-02-24T08:37:05.106Z,101377.69
2018-02-24T08:38:07.606Z,101367.27
2018-02-24T08:39:10.109Z,101369.89
2018-02-24T08:40:12.604Z,101372.17
2018-02-24T08:41:15.098Z,101376.89
2018-02-24T08:42:17.594Z,101369.34
2018-02-24T08:43:20.106Z,101362.87
2018-02-24T08:44:22.589Z,101367.70
2018-02-24T08:45:25.089Z,101379.78
2018-02-24T08:46:27.574Z,101374.89
2018-02-24T08:47:30.051Z,101377.84
2018-02-24T08:48:32.552Z,101369.25
2018-02-24T08:49:35.033Z,101363.17
2018-02-24T08:50:37.525Z,101367.30
2018-02-24T08:51:40.003Z,101366.58
2018-02-24T08:52:42.526Z,101363.83
2018-02-24T08:53:45.022Z,101368.95
2018-02-24T08:54:47.501Z,101370.06
2018-02-24T08:55:49.967Z,101379.02
2018-02-24T08:56:52.467Z,101378.10
2018-02-24T08:57:55.003Z,101370.72
2018-02-24T08:58:57.550Z,101377.64
2018-02-24T09:00:00.051Z,101379.87
2018-02-24T09:01:02.556Z,101384.16
2018-02-24T09:02:05.077Z,101390.27
2018-02-24T09:03:07.557Z,101384.00
2018-02-24T09:04:10.108Z,101391.73
2018-02-24T09:05:12.583Z,101393.45
2018-02-24T09:06:15.070Z,101391.28
2018-02-24T09:07:17.571Z,101392.14
2018-02-24T09:08:20.058Z,101393.00
2018-02-24T09:09:22.601Z,101397.02
2018-02-24T09:10:25.098Z,101403.37
2018-02-24T09:11:27.563Z,101398.33
2018-02-24T09:12:30.032Z,101404.23
2018-02-24T09:13:32.516Z,101396.41
2018-02-24T09:14:35.032Z,101394.12
2018-02-24T09:15:37.520Z,101400.36
2018-02-24T09:16:39.994Z,101401.78
2018-02-24T09:17:42.493Z,101399.48
2018-02-24T09:18:44.959Z,101404.31
2018-02-24T09:19:47.466Z,101408.18
2018-02-24T09:20:49.936Z,101413.71
2018-02-24T09:21:52.415Z,101412.23
2018-02-24T09:22:54.913Z,101406.22
2018-02-24T09:23:57.383Z,101411.60
2018-02-24T09:24:59.885Z,101410.67
2018-02-24T09:26:02.343Z,101407.41
2018-02-24T09:27:04.819Z,101412.36
2018-02-24T09:28:07.300Z,101414.99
2018-02-24T09:29:09.785Z,101420.94
2018-02-24T09:30:12.278Z,101415.18
2018-02-24T09:31:14.769Z,101412.47
2018-02-24T09:32:17.252Z,101415.37
2018-02-24T09:33:19.747Z,101413.73
2018-02-24T09:34:22.237Z,101415.00
2018-02-24T09:35:24.742Z,101424.91
2018-02-24T09:36:27.229Z,101406.36
2018-02-24T09:37:29.720Z,101421.91
2018-02-24T09:38:32.213Z,101415.89
2018-02-24T09:39:34.714Z,101417.16
2018-02-24T09:40:37.213Z,101418.67
2018-02-24T09:41:39.706Z,101410.06
2018-02-24T09:42:42.194Z,101414.62
2018-02-24T09:43:44.693Z,101410.81
2018-02-24T09:44:47.159Z,101404.62
2018-02-24T09:45:49.655Z,101416.05
2018-02-24T09:46:52.139Z,101419.75
2018-02-24T09:47:54.629Z,101415.78
2018-02-24T09:48:57.118Z,101419.79
2018-02-24T09:49:59.612Z,101416.37
2018-02-24T09:51:02.122Z,101411.03
2018-02-24T09:52:04.593Z,101418.19
2018-02-24T09:53:07.085Z,101420.94
2018-02-24T09:54:09.573Z,101424.64
2018-02-24T09:55:12.073Z,101417.11
2018-02-24T09:56:14.586Z,101415.89
2018-02-24T09:57:17.054Z,101427.42
2018-02-24T09:58:19.561Z,101424.67
2018-02-24T09:59:22.060Z,101424.41
2018-02-24T10:00:24.558Z,101418.25
2018-02-24T10:01:27.112Z,101421.67
2018-02-24T10:02:29.599Z,101423.20
2018-02-24T10:03:32.082Z,101424.45
2018-02-24T10:04:34.571Z,101427.61
2018-02-24T10:05:37.070Z,101427.34
2018-02-24T10:06:39.572Z,101429.42
2018-02-24T10:07:42.074Z,101424.38
2018-02-24T10:08:44.590Z,101429.45
2018-02-24T10:09:47.081Z,101421.36
2018-02-24T10:10:49.569Z,101432.64
2018-02-24T10:11:52.071Z,101434.83
2018-02-24T10:12:54.562Z,101428.11
2018-02-24T10:13:57.077Z,101436.90
2018-02-24T10:14:59.584Z,101431.67
2018-02-24T10:16:02.082Z,101437.02
2018-02-24T10:17:04.602Z,101433.02
2018-02-24T10:18:07.075Z,101434.72
2018-02-24T10:19:09.563Z,101439.88
2018-02-24T10:20:12.066Z,101442.38
2018-02-24T10:21:14.640Z,101448.20
2018-02-24T10:22:17.303Z,101447.72
2018-02-24T10:23:19.798Z,101443.57
2018-02-24T10:24:22.320Z,101443.75
2018-02-24T10:25:24.792Z,101444.23
2018-02-24T10:26:27.258Z,101446.11
2018-02-24T10:27:29.773Z,101448.06
2018-02-24T10:28:32.252Z,101456.36
2018-02-24T10:29:34.734Z,101451.05
2018-02-24T10:30:37.230Z,101450.13
2018-02-24T10:31:39.729Z,101449.05
2018-02-24T10:32:42.231Z,101463.61
2018-02-24T10:33:44.714Z,101454.38
2018-02-24T10:34:47.213Z,101461.45
2018-02-24T10:35:49.706Z,101453.54
2018-02-24T10:36:52.190Z,101448.41
2018-02-24T10:37:54.687Z,101455.02
2018-02-24T10:38:57.163Z,101452.45
2018-02-24T10:39:59.643Z,101456.88
2018-02-24T10:41:02.143Z,101449.64
2018-02-24T10:42:04.671Z,101452.41
2018-02-24T10:43:07.158Z,101445.00
2018-02-24T10:44:09.636Z,101445.14
2018-02-24T10:45:12.129Z,101451.59
2018-02-24T10:46:14.610Z,101442.41
2018-02-24T10:47:17.190Z,101446.78
2018-02-24T10:48:19.706Z,101447.19
2018-02-24T10:49:22.183Z,101447.74
2018-02-24T10:50:24.667Z,101447.08
2018-02-24T10:51:27.161Z,101453.38
2018-02-24T10:52:29.668Z,101451.45
2018-02-24T10:53:32.172Z,101449.27
2018-02-24T10:54:34.669Z,101458.71
2018-02-24T10:55:37.164Z,101445.56
2018-02-24T10:56:39.655Z,101442.52
2018-02-24T10:57:42.145Z,101444.19
2018-02-24T10:58:44.664Z,101448.70
2018-02-24T10:59:47.157Z,101448.70
2018-02-24T11:00:49.630Z,101450.37
2018-02-24T11:01:52.130Z,101448.76
2018-02-24T11:02:54.649Z,101446.02
2018-02-24T11:03:57.148Z,101445.20
2018-02-24T11:04:59.650Z,101447.13
2018-02-24T11:06:02.127Z,101443.83
2018-02-24T11:07:04.615Z,101436.16
2018-02-24T11:08:07.095Z,101444.27
2018-02-24T11:09:09.923Z,101437.84
2018-02-24T11:10:12.412Z,101442.91
2018-02-24T11:11:14.905Z,101441.14
2018-02-24T11:12:17.397Z,101432.91
2018-02-24T11:13:19.881Z,101437.87
2018-02-24T11:14:22.397Z,101437.46
2018-02-24T11:15:24.883Z,101436.09
2018-02-24T11:16:27.355Z,101439.35
2018-02-24T11:17:29.857Z,101436.20
2018-02-24T11:18:32.973Z,101431.42
2018-02-24T11:19:35.485Z,101435.82
2018-02-24T11:20:37.960Z,101434.59
2018-02-24T11:21:40.439Z,101434.06
2018-02-24T11:22:42.937Z,101434.21
2018-02-24T11:23:45.416Z,101452.05
2018-02-24T11:24:47.931Z,101442.48
2018-02-24T11:25:50.411Z,101436.87
2018-02-24T11:26:52.952Z,101449.61
2018-02-24T11:27:55.446Z,101442.78
2018-02-24T11:28:57.915Z,101438.00
2018-02-24T11:30:00.411Z,101443.22
2018-02-24T11:31:02.919Z,101436.92
2018-02-24T11:32:05.419Z,101438.82
2018-02-24T11:33:07.925Z,101440.48
2018-02-24T11:34:10.409Z,101439.66
2018-02-24T11:35:12.998Z,101436.24
2018-02-24T11:36:15.493Z,101436.66
2018-02-24T11:37:17.989Z,101430.09
2018-02-24T11:38:20.455Z,101437.91
2018-02-24T11:39:28.656Z,101439.69
2018-02-24T11:40:31.174Z,101444.48
2018-02-24T11:41:33.662Z,101437.64
2018-02-24T11:42:36.230Z,101444.89
2018-02-24T11:43:38.736Z,101439.16
2018-02-24T11:44:41.242Z,101449.44
2018-02-24T11:45:43.778Z,101445.61
2018-02-24T11:46:46.646Z,101438.34
2018-02-24T11:47:49.161Z,101446.86
2018-02-24T11:48:51.662Z,101440.70
2018-02-24T11:49:54.147Z,101445.12
2018-02-24T11:50:56.652Z,101442.66
2018-02-24T11:51:59.128Z,101437.76
2018-02-24T11:53:01.625Z,101426.21